sensor_id;sensor_type;location;lat;lon;timestamp;temperature;humidity
23305;DHT22;11821;51.456;8.844;2022-07-01T00:00:35;20.00;99.90
23305;DHT22;11821;51.456;8.844;2022-07-01T00:03:01;20.00;99.90
23305;DHT22;11821;51.456;8.844;2022-07-01T00:05:27;20.10;99.90
23305;DHT22;11821;51.456;8.844;2022-07-01T00:07:54;20.00;99.90
23305;DHT22;11821;51.456;8.844;2022-07-01T00:10:20;19.90;99.90
23305;DHT22;11821;51.456;8.844;2022-07-01T00:12:46;19.90;99.90
23305;DHT22;11821;51.456;8.844;2022-07-01T00:15:13;19.90;99.90
23305;DHT22;11821;51.456;8.844;2022-07-01T00:17:39;20.00;99.90
23305;DHT22;11821;51.456;8.844;2022-07-01T00:20:06;19.70;99.90
23305;DHT22;11821;51.456;8.844;2022-07-01T00:22:36;19.80;99.90
23305;DHT22;11821;51.456;8.844;2022-07-01T00:25:03;19.80;99.90
23305;DHT22;11821;51.456;8.844;2022-07-01T00:27:29;19.90;99.90
23305;DHT22;11821;51.456;8.844;2022-07-01T00:29:56;19.70;99.90
23305;DHT22;11821;51.456;8.844;2022-07-01T00:32:22;19.80;99.90
23305;DHT22;11821;51.456;8.844;2022-07-01T00:34:48;19.80;99.90
23305;DHT22;11821;51.456;8.844;2022-07-01T00:37:15;19.70;99.90
23305;DHT22;11821;51.456;8.844;2022-07-01T00:39:41;19.90;99.90
23305;DHT22;11821;51.456;8.844;2022-07-01T00:42:07;19.80;99.90
23305;DHT22;11821;51.456;8.844;2022-07-01T00:44:33;19.80;99.90
23305;DHT22;11821;51.456;8.844;2022-07-01T00:47:03;19.70;99.90
23305;DHT22;11821;51.456;8.844;2022-07-01T00:49:29;19.70;99.90
23305;DHT22;11821;51.456;8.844;2022-07-01T00:51:56;19.70;99.90
23305;DHT22;11821;51.456;8.844;2022-07-01T00:54:23;19.70;99.90
23305;DHT22;11821;51.456;8.844;2022-07-01T00:56:50;19.60;99.90
23305;DHT22;11821;51.456;8.844;2022-07-01T00:59:16;19.60;99.90
23305;DHT22;11821;51.456;8.844;2022-07-01T01:01:43;19.40;99.90
23305;DHT22;11821;51.456;8.844;2022-07-01T01:04:09;19.40;99.90
23305;DHT22;11821;51.456;8.844;2022-07-01T01:06:36;19.40;99.90
23305;DHT22;11821;51.456;8.844;2022-07-01T01:09:02;19.30;99.90
23305;DHT22;11821;51.456;8.844;2022-07-01T01:11:30;19.50;99.90
23305;DHT22;11821;51.456;8.844;2022-07-01T01:13:56;19.30;99.90
23305;DHT22;11821;51.456;8.844;2022-07-01T01:16:23;18.90;99.90
23305;DHT22;11821;51.456;8.844;2022-07-01T01:18:49;19.10;99.90
23305;DHT22;11821;51.456;8.844;2022-07-01T01:21:17;19.10;99.90
23305;DHT22;11821;51.456;8.844;2022-07-01T01:23:43;19.10;99.90
23305;DHT22;11821;51.456;8.844;2022-07-01T01:28:42;19.10;99.90
23305;DHT22;11821;51.456;8.844;2022-07-01T01:31:09;19.10;99.90
23305;DHT22;11821;51.456;8.844;2022-07-01T01:33:37;19.10;99.90
23305;DHT22;11821;51.456;8.844;2022-07-01T01:36:04;19.10;99.90
23305;DHT22;11821;51.456;8.844;2022-07-01T01:38:33;19.20;99.90
23305;DHT22;11821;51.456;8.844;2022-07-01T01:41:01;19.20;99.90
23305;DHT22;11821;51.456;8.844;2022-07-01T01:43:27;19.10;99.90
23305;DHT22;11821;51.456;8.844;2022-07-01T01:45:54;19.10;99.90
23305;DHT22;11821;51.456;8.844;2022-07-01T01:48:23;19.00;99.90
23305;DHT22;11821;51.456;8.844;2022-07-01T01:50:49;19.00;99.90
23305;DHT22;11821;51.456;8.844;2022-07-01T01:53:16;19.00;99.90
23305;DHT22;11821;51.456;8.844;2022-07-01T01:55:42;19.10;99.90
23305;DHT22;11821;51.456;8.844;2022-07-01T01:58:09;19.10;99.90
23305;DHT22;11821;51.456;8.844;2022-07-01T02:00:35;19.10;99.90
23305;DHT22;11821;51.456;8.844;2022-07-01T02:03:01;18.90;99.90
23305;DHT22;11821;51.456;8.844;2022-07-01T02:05:27;18.90;99.90
23305;DHT22;11821;51.456;8.844;2022-07-01T02:07:54;18.90;99.90
23305;DHT22;11821;51.456;8.844;2022-07-01T02:10:20;18.70;99.90
23305;DHT22;11821;51.456;8.844;2022-07-01T02:12:47;18.60;99.90
23305;DHT22;11821;51.456;8.844;2022-07-01T02:15:13;18.40;99.90
23305;DHT22;11821;51.456;8.844;2022-07-01T02:17:39;18.60;99.90
23305;DHT22;11821;51.456;8.844;2022-07-01T02:20:06;18.60;99.90
23305;DHT22;11821;51.456;8.844;2022-07-01T02:22:32;18.70;99.90
23305;DHT22;11821;51.456;8.844;2022-07-01T02:24:58;18.60;99.90
23305;DHT22;11821;51.456;8.844;2022-07-01T02:27:25;18.70;99.90
23305;DHT22;11821;51.456;8.844;2022-07-01T02:29:51;18.70;99.90
23305;DHT22;11821;51.456;8.844;2022-07-01T02:32:17;18.70;99.90
23305;DHT22;11821;51.456;8.844;2022-07-01T02:34:45;18.60;99.90
23305;DHT22;11821;51.456;8.844;2022-07-01T02:37:11;18.70;99.90
23305;DHT22;11821;51.456;8.844;2022-07-01T02:39:37;18.80;99.90
23305;DHT22;11821;51.456;8.844;2022-07-01T02:42:04;18.70;99.90
23305;DHT22;11821;51.456;8.844;2022-07-01T02:44:48;18.80;99.90
23305;DHT22;11821;51.456;8.844;2022-07-01T02:47:15;18.80;99.90
23305;DHT22;11821;51.456;8.844;2022-07-01T02:49:41;18.80;99.90
23305;DHT22;11821;51.456;8.844;2022-07-01T02:52:07;18.80;99.90
23305;DHT22;11821;51.456;8.844;2022-07-01T02:54:34;18.80;99.90
23305;DHT22;11821;51.456;8.844;2022-07-01T02:57:00;18.80;99.90
23305;DHT22;11821;51.456;8.844;2022-07-01T02:59:27;18.80;99.90
23305;DHT22;11821;51.456;8.844;2022-07-01T03:01:55;18.80;99.90
23305;DHT22;11821;51.456;8.844;2022-07-01T03:04:21;18.80;99.90
23305;DHT22;11821;51.456;8.844;2022-07-01T03:06:47;18.80;99.90
23305;DHT22;11821;51.456;8.844;2022-07-01T03:09:13;18.80;99.90
23305;DHT22;11821;51.456;8.844;2022-07-01T03:11:40;18.80;99.90
23305;DHT22;11821;51.456;8.844;2022-07-01T03:14:06;18.80;99.90
23305;DHT22;11821;51.456;8.844;2022-07-01T03:16:32;18.70;99.90
23305;DHT22;11821;51.456;8.844;2022-07-01T03:18:58;18.70;99.90
23305;DHT22;11821;51.456;8.844;2022-07-01T03:21:25;18.70;99.90
23305;DHT22;11821;51.456;8.844;2022-07-01T03:23:51;18.70;99.90
23305;DHT22;11821;51.456;8.844;2022-07-01T03:26:17;18.80;99.90
23305;DHT22;11821;51.456;8.844;2022-07-01T03:28:44;18.80;99.90
23305;DHT22;11821;51.456;8.844;2022-07-01T03:31:10;18.80;99.90
23305;DHT22;11821;51.456;8.844;2022-07-01T03:33:36;18.80;99.90
23305;DHT22;11821;51.456;8.844;2022-07-01T03:36:03;18.90;99.90
23305;DHT22;11821;51.456;8.844;2022-07-01T03:38:29;18.80;99.90
23305;DHT22;11821;51.456;8.844;2022-07-01T03:40:55;18.90;99.90
23305;DHT22;11821;51.456;8.844;2022-07-01T03:43:21;18.90;99.90
23305;DHT22;11821;51.456;8.844;2022-07-01T03:45:48;18.90;99.90
23305;DHT22;11821;51.456;8.844;2022-07-01T03:48:14;18.70;99.90
23305;DHT22;11821;51.456;8.844;2022-07-01T03:50:42;18.70;99.90
23305;DHT22;11821;51.456;8.844;2022-07-01T03:53:08;18.70;99.90
23305;DHT22;11821;51.456;8.844;2022-07-01T03:55:53;18.80;99.90
23305;DHT22;11821;51.456;8.844;2022-07-01T03:58:19;18.80;99.90
23305;DHT22;11821;51.456;8.844;2022-07-01T04:00:45;18.80;99.90
23305;DHT22;11821;51.456;8.844;2022-07-01T04:03:11;18.80;99.90
23305;DHT22;11821;51.456;8.844;2022-07-01T04:05:38;18.80;99.90
23305;DHT22;11821;51.456;8.844;2022-07-01T04:08:06;18.80;99.90
23305;DHT22;11821;51.456;8.844;2022-07-01T04:10:34;18.80;99.90
23305;DHT22;11821;51.456;8.844;2022-07-01T04:13:01;18.80;99.90
23305;DHT22;11821;51.456;8.844;2022-07-01T04:15:27;18.70;99.90
23305;DHT22;11821;51.456;8.844;2022-07-01T04:17:54;18.70;99.90
23305;DHT22;11821;51.456;8.844;2022-07-01T04:20:21;18.80;99.90
23305;DHT22;11821;51.456;8.844;2022-07-01T04:22:47;18.90;99.90
23305;DHT22;11821;51.456;8.844;2022-07-01T04:25:14;18.80;99.90
23305;DHT22;11821;51.456;8.844;2022-07-01T04:27:40;18.90;99.90
23305;DHT22;11821;51.456;8.844;2022-07-01T04:30:07;18.90;99.90
23305;DHT22;11821;51.456;8.844;2022-07-01T04:32:33;19.00;99.90
23305;DHT22;11821;51.456;8.844;2022-07-01T04:34:59;18.80;99.90
23305;DHT22;11821;51.456;8.844;2022-07-01T04:37:26;18.80;99.90
23305;DHT22;11821;51.456;8.844;2022-07-01T04:39:52;18.80;99.90
23305;DHT22;11821;51.456;8.844;2022-07-01T04:42:18;18.70;99.90
23305;DHT22;11821;51.456;8.844;2022-07-01T04:44:46;18.70;99.90
23305;DHT22;11821;51.456;8.844;2022-07-01T04:47:12;18.70;99.90
23305;DHT22;11821;51.456;8.844;2022-07-01T04:49:39;18.70;99.90
23305;DHT22;11821;51.456;8.844;2022-07-01T04:52:05;18.70;99.90
23305;DHT22;11821;51.456;8.844;2022-07-01T04:54:32;18.70;99.90
23305;DHT22;11821;51.456;8.844;2022-07-01T04:56:58;18.60;99.90
23305;DHT22;11821;51.456;8.844;2022-07-01T04:59:24;18.60;99.90
23305;DHT22;11821;51.456;8.844;2022-07-01T05:01:50;18.60;99.90
23305;DHT22;11821;51.456;8.844;2022-07-01T05:04:18;18.60;99.90
23305;DHT22;11821;51.456;8.844;2022-07-01T05:06:44;18.60;99.90
23305;DHT22;11821;51.456;8.844;2022-07-01T05:09:11;18.60;99.90
23305;DHT22;11821;51.456;8.844;2022-07-01T05:11:37;18.70;99.90
23305;DHT22;11821;51.456;8.844;2022-07-01T05:14:05;18.70;99.90
23305;DHT22;11821;51.456;8.844;2022-07-01T05:16:33;18.60;99.90
23305;DHT22;11821;51.456;8.844;2022-07-01T05:19:00;18.70;99.90
23305;DHT22;11821;51.456;8.844;2022-07-01T05:21:45;18.70;99.90
23305;DHT22;11821;51.456;8.844;2022-07-01T05:24:29;18.60;99.90
23305;DHT22;11821;51.456;8.844;2022-07-01T05:26:56;18.60;99.90
23305;DHT22;11821;51.456;8.844;2022-07-01T05:29:23;18.60;99.90
23305;DHT22;11821;51.456;8.844;2022-07-01T05:31:49;18.50;99.90
23305;DHT22;11821;51.456;8.844;2022-07-01T05:34:16;18.60;99.90
23305;DHT22;11821;51.456;8.844;2022-07-01T05:36:42;18.60;99.90
23305;DHT22;11821;51.456;8.844;2022-07-01T05:39:08;18.60;99.90
23305;DHT22;11821;51.456;8.844;2022-07-01T05:41:35;18.60;99.90
23305;DHT22;11821;51.456;8.844;2022-07-01T05:44:01;18.60;99.90
23305;DHT22;11821;51.456;8.844;2022-07-01T05:46:28;18.60;99.90
23305;DHT22;11821;51.456;8.844;2022-07-01T05:48:54;18.60;99.90
23305;DHT22;11821;51.456;8.844;2022-07-01T05:51:20;18.60;99.90
23305;DHT22;11821;51.456;8.844;2022-07-01T05:53:47;18.60;99.90
23305;DHT22;11821;51.456;8.844;2022-07-01T05:56:13;18.60;99.90
23305;DHT22;11821;51.456;8.844;2022-07-01T05:58:40;18.80;99.90
23305;DHT22;11821;51.456;8.844;2022-07-01T06:01:07;18.70;99.90
23305;DHT22;11821;51.456;8.844;2022-07-01T06:03:33;18.70;99.90
23305;DHT22;11821;51.456;8.844;2022-07-01T06:05:59;18.70;99.90
23305;DHT22;11821;51.456;8.844;2022-07-01T06:08:25;18.70;99.90
23305;DHT22;11821;51.456;8.844;2022-07-01T06:10:51;18.80;99.90
23305;DHT22;11821;51.456;8.844;2022-07-01T06:13:18;18.80;99.90
23305;DHT22;11821;51.456;8.844;2022-07-01T06:15:44;18.90;99.90
23305;DHT22;11821;51.456;8.844;2022-07-01T06:18:10;18.90;99.90
23305;DHT22;11821;51.456;8.844;2022-07-01T06:20:37;19.00;99.90
23305;DHT22;11821;51.456;8.844;2022-07-01T06:23:03;18.90;99.90
23305;DHT22;11821;51.456;8.844;2022-07-01T06:25:29;19.00;99.90
23305;DHT22;11821;51.456;8.844;2022-07-01T06:27:56;19.00;99.90
23305;DHT22;11821;51.456;8.844;2022-07-01T06:30:22;18.90;99.90
23305;DHT22;11821;51.456;8.844;2022-07-01T06:32:48;18.90;99.90
23305;DHT22;11821;51.456;8.844;2022-07-01T06:35:14;18.90;99.90
23305;DHT22;11821;51.456;8.844;2022-07-01T06:37:41;19.00;99.90
23305;DHT22;11821;51.456;8.844;2022-07-01T06:40:07;19.00;99.90
23305;DHT22;11821;51.456;8.844;2022-07-01T06:42:34;19.10;99.90
23305;DHT22;11821;51.456;8.844;2022-07-01T06:45:00;19.10;99.90
23305;DHT22;11821;51.456;8.844;2022-07-01T06:47:27;19.10;99.90
23305;DHT22;11821;51.456;8.844;2022-07-01T06:49:53;19.20;99.90
23305;DHT22;11821;51.456;8.844;2022-07-01T06:52:19;19.40;99.90
23305;DHT22;11821;51.456;8.844;2022-07-01T06:54:46;19.40;99.90
23305;DHT22;11821;51.456;8.844;2022-07-01T06:57:12;19.40;99.90
23305;DHT22;11821;51.456;8.844;2022-07-01T06:59:38;19.50;99.90
23305;DHT22;11821;51.456;8.844;2022-07-01T07:02:05;19.70;99.90
23305;DHT22;11821;51.456;8.844;2022-07-01T07:04:34;19.70;99.90
23305;DHT22;11821;51.456;8.844;2022-07-01T07:07:01;19.70;99.90
23305;DHT22;11821;51.456;8.844;2022-07-01T07:09:27;19.70;99.90
23305;DHT22;11821;51.456;8.844;2022-07-01T07:11:54;19.80;99.90
23305;DHT22;11821;51.456;8.844;2022-07-01T07:14:20;19.90;99.90
23305;DHT22;11821;51.456;8.844;2022-07-01T07:16:46;20.00;99.90
23305;DHT22;11821;51.456;8.844;2022-07-01T07:19:13;20.10;99.90
23305;DHT22;11821;51.456;8.844;2022-07-01T07:21:39;20.10;99.90
23305;DHT22;11821;51.456;8.844;2022-07-01T07:24:06;20.20;99.90
23305;DHT22;11821;51.456;8.844;2022-07-01T07:26:32;20.20;99.90
23305;DHT22;11821;51.456;8.844;2022-07-01T07:28:58;20.20;99.90
23305;DHT22;11821;51.456;8.844;2022-07-01T07:31:24;20.20;99.90
23305;DHT22;11821;51.456;8.844;2022-07-01T07:33:51;20.00;99.90
23305;DHT22;11821;51.456;8.844;2022-07-01T07:36:17;19.90;99.90
23305;DHT22;11821;51.456;8.844;2022-07-01T07:38:43;19.80;99.90
23305;DHT22;11821;51.456;8.844;2022-07-01T07:41:09;19.90;99.90
23305;DHT22;11821;51.456;8.844;2022-07-01T07:43:36;19.80;99.90
23305;DHT22;11821;51.456;8.844;2022-07-01T07:46:03;19.80;99.90
23305;DHT22;11821;51.456;8.844;2022-07-01T07:48:30;19.60;99.90
23305;DHT22;11821;51.456;8.844;2022-07-01T07:50:57;19.70;99.90
23305;DHT22;11821;51.456;8.844;2022-07-01T07:53:23;19.80;99.90
23305;DHT22;11821;51.456;8.844;2022-07-01T07:55:49;19.90;99.90
23305;DHT22;11821;51.456;8.844;2022-07-01T07:58:15;20.00;99.90
23305;DHT22;11821;51.456;8.844;2022-07-01T08:00:43;20.20;99.90
23305;DHT22;11821;51.456;8.844;2022-07-01T08:03:09;20.40;99.90
23305;DHT22;11821;51.456;8.844;2022-07-01T08:05:36;20.60;99.90
23305;DHT22;11821;51.456;8.844;2022-07-01T08:08:02;20.60;99.90
23305;DHT22;11821;51.456;8.844;2022-07-01T08:10:28;20.70;99.90
23305;DHT22;11821;51.456;8.844;2022-07-01T08:12:55;20.60;99.90
23305;DHT22;11821;51.456;8.844;2022-07-01T08:15:23;20.60;99.90
23305;DHT22;11821;51.456;8.844;2022-07-01T08:17:49;20.60;99.90
23305;DHT22;11821;51.456;8.844;2022-07-01T08:20:15;20.60;99.90
23305;DHT22;11821;51.456;8.844;2022-07-01T08:22:42;20.70;99.90
23305;DHT22;11821;51.456;8.844;2022-07-01T08:25:09;20.80;99.90
23305;DHT22;11821;51.456;8.844;2022-07-01T08:27:35;20.80;99.90
23305;DHT22;11821;51.456;8.844;2022-07-01T08:30:01;21.00;99.90
23305;DHT22;11821;51.456;8.844;2022-07-01T08:32:28;21.00;99.90
23305;DHT22;11821;51.456;8.844;2022-07-01T08:34:56;21.00;99.90
23305;DHT22;11821;51.456;8.844;2022-07-01T08:37:22;21.10;99.90
23305;DHT22;11821;51.456;8.844;2022-07-01T08:39:48;21.20;99.90
23305;DHT22;11821;51.456;8.844;2022-07-01T08:42:15;21.20;99.90
23305;DHT22;11821;51.456;8.844;2022-07-01T08:44:41;21.20;99.90
23305;DHT22;11821;51.456;8.844;2022-07-01T08:47:12;21.20;99.90
23305;DHT22;11821;51.456;8.844;2022-07-01T08:49:39;21.30;99.90
23305;DHT22;11821;51.456;8.844;2022-07-01T08:52:05;21.50;99.90
23305;DHT22;11821;51.456;8.844;2022-07-01T08:54:31;21.40;99.90
23305;DHT22;11821;51.456;8.844;2022-07-01T08:56:58;21.50;99.90
23305;DHT22;11821;51.456;8.844;2022-07-01T08:59:25;21.60;99.90
23305;DHT22;11821;51.456;8.844;2022-07-01T09:02:10;21.70;99.90
23305;DHT22;11821;51.456;8.844;2022-07-01T09:04:36;21.80;99.90
23305;DHT22;11821;51.456;8.844;2022-07-01T09:07:06;22.00;99.90
23305;DHT22;11821;51.456;8.844;2022-07-01T09:09:39;22.20;99.60
23305;DHT22;11821;51.456;8.844;2022-07-01T09:12:06;22.20;99.80
23305;DHT22;11821;51.456;8.844;2022-07-01T09:14:34;22.10;99.90
23305;DHT22;11821;51.456;8.844;2022-07-01T09:17:03;22.10;99.70
23305;DHT22;11821;51.456;8.844;2022-07-01T09:19:33;22.20;99.60
23305;DHT22;11821;51.456;8.844;2022-07-01T09:22:01;22.40;99.90
23305;DHT22;11821;51.456;8.844;2022-07-01T09:24:41;22.30;98.80
23305;DHT22;11821;51.456;8.844;2022-07-01T09:27:13;22.10;99.00
23305;DHT22;11821;51.456;8.844;2022-07-01T09:29:41;22.30;99.90
23305;DHT22;11821;51.456;8.844;2022-07-01T09:32:10;22.40;99.00
23305;DHT22;11821;51.456;8.844;2022-07-01T09:34:45;22.40;98.70
23305;DHT22;11821;51.456;8.844;2022-07-01T09:37:15;22.50;98.40
23305;DHT22;11821;51.456;8.844;2022-07-01T09:39:49;22.60;98.50
23305;DHT22;11821;51.456;8.844;2022-07-01T09:42:17;22.40;97.90
23305;DHT22;11821;51.456;8.844;2022-07-01T09:47:26;22.30;98.80
23305;DHT22;11821;51.456;8.844;2022-07-01T09:49:54;22.10;98.80
23305;DHT22;11821;51.456;8.844;2022-07-01T09:52:22;22.10;99.10
23305;DHT22;11821;51.456;8.844;2022-07-01T09:54:49;21.90;98.80
23305;DHT22;11821;51.456;8.844;2022-07-01T09:57:16;21.90;99.00
23305;DHT22;11821;51.456;8.844;2022-07-01T09:59:43;22.00;99.10
23305;DHT22;11821;51.456;8.844;2022-07-01T10:02:11;22.20;98.90
23305;DHT22;11821;51.456;8.844;2022-07-01T10:04:41;22.20;99.50
23305;DHT22;11821;51.456;8.844;2022-07-01T10:10:09;22.60;98.80
23305;DHT22;11821;51.456;8.844;2022-07-01T10:12:55;22.70;99.10
23305;DHT22;11821;51.456;8.844;2022-07-01T10:15:22;22.50;99.10
23305;DHT22;11821;51.456;8.844;2022-07-01T10:17:50;22.40;98.70
23305;DHT22;11821;51.456;8.844;2022-07-01T10:20:22;22.20;98.60
23305;DHT22;11821;51.456;8.844;2022-07-01T10:22:49;22.30;98.60
23305;DHT22;11821;51.456;8.844;2022-07-01T10:25:42;22.50;98.30
23305;DHT22;11821;51.456;8.844;2022-07-01T10:30:56;22.50;98.90
23305;DHT22;11821;51.456;8.844;2022-07-01T10:33:38;22.50;99.90
23305;DHT22;11821;51.456;8.844;2022-07-01T10:38:34;22.40;99.70
23305;DHT22;11821;51.456;8.844;2022-07-01T10:41:01;22.20;99.80
23305;DHT22;11821;51.456;8.844;2022-07-01T10:43:37;22.10;99.60
23305;DHT22;11821;51.456;8.844;2022-07-01T10:46:04;22.20;99.90
23305;DHT22;11821;51.456;8.844;2022-07-01T10:48:32;22.10;99.90
23305;DHT22;11821;51.456;8.844;2022-07-01T10:50:59;21.90;99.90
23305;DHT22;11821;51.456;8.844;2022-07-01T10:53:46;21.80;99.90
23305;DHT22;11821;51.456;8.844;2022-07-01T10:56:38;21.90;99.90
23305;DHT22;11821;51.456;8.844;2022-07-01T10:59:04;21.80;99.90
23305;DHT22;11821;51.456;8.844;2022-07-01T11:01:30;21.80;99.90
23305;DHT22;11821;51.456;8.844;2022-07-01T11:03:57;21.70;99.90
23305;DHT22;11821;51.456;8.844;2022-07-01T11:06:24;21.70;99.90
23305;DHT22;11821;51.456;8.844;2022-07-01T11:08:51;21.70;99.90
23305;DHT22;11821;51.456;8.844;2022-07-01T11:11:18;21.80;99.90
23305;DHT22;11821;51.456;8.844;2022-07-01T11:13:45;22.00;99.90
23305;DHT22;11821;51.456;8.844;2022-07-01T11:16:11;21.90;99.30
23305;DHT22;11821;51.456;8.844;2022-07-01T11:18:40;22.10;98.90
23305;DHT22;11821;51.456;8.844;2022-07-01T11:21:09;22.20;99.40
23305;DHT22;11821;51.456;8.844;2022-07-01T11:23:36;22.30;99.20
23305;DHT22;11821;51.456;8.844;2022-07-01T11:26:02;22.20;99.40
23305;DHT22;11821;51.456;8.844;2022-07-01T11:28:28;22.40;99.00
23305;DHT22;11821;51.456;8.844;2022-07-01T11:31:01;22.50;99.10
23305;DHT22;11821;51.456;8.844;2022-07-01T11:33:27;22.50;99.20
23305;DHT22;11821;51.456;8.844;2022-07-01T11:35:54;22.50;98.60
23305;DHT22;11821;51.456;8.844;2022-07-01T11:38:38;22.50;98.50
23305;DHT22;11821;51.456;8.844;2022-07-01T11:41:24;22.40;98.20
23305;DHT22;11821;51.456;8.844;2022-07-01T11:43:51;22.40;98.30
23305;DHT22;11821;51.456;8.844;2022-07-01T11:46:18;22.40;98.70
23305;DHT22;11821;51.456;8.844;2022-07-01T11:48:48;22.30;98.10
23305;DHT22;11821;51.456;8.844;2022-07-01T11:51:19;22.20;98.60
23305;DHT22;11821;51.456;8.844;2022-07-01T11:53:48;22.20;98.40
23305;DHT22;11821;51.456;8.844;2022-07-01T11:56:16;22.20;98.30
23305;DHT22;11821;51.456;8.844;2022-07-01T11:58:48;22.10;98.40
23305;DHT22;11821;51.456;8.844;2022-07-01T12:01:22;22.10;98.10
23305;DHT22;11821;51.456;8.844;2022-07-01T12:03:48;22.30;98.60
23305;DHT22;11821;51.456;8.844;2022-07-01T12:06:16;22.90;99.00
23305;DHT22;11821;51.456;8.844;2022-07-01T12:08:44;23.10;98.50
23305;DHT22;11821;51.456;8.844;2022-07-01T12:11:11;23.40;97.20
23305;DHT22;11821;51.456;8.844;2022-07-01T12:13:37;23.50;97.10
23305;DHT22;11821;51.456;8.844;2022-07-01T12:16:09;24.00;96.40
23305;DHT22;11821;51.456;8.844;2022-07-01T12:18:35;23.90;96.30
23305;DHT22;11821;51.456;8.844;2022-07-01T12:21:02;23.90;95.40
23305;DHT22;11821;51.456;8.844;2022-07-01T12:23:28;23.80;95.60
23305;DHT22;11821;51.456;8.844;2022-07-01T12:25:54;23.90;94.90
23305;DHT22;11821;51.456;8.844;2022-07-01T12:28:32;24.00;94.70
23305;DHT22;11821;51.456;8.844;2022-07-01T12:31:04;23.80;94.70
23305;DHT22;11821;51.456;8.844;2022-07-01T12:33:34;23.70;95.30
23305;DHT22;11821;51.456;8.844;2022-07-01T12:36:05;23.70;95.10
23305;DHT22;11821;51.456;8.844;2022-07-01T12:38:32;23.70;95.30
23305;DHT22;11821;51.456;8.844;2022-07-01T12:40:59;23.90;94.90
23305;DHT22;11821;51.456;8.844;2022-07-01T12:43:30;24.00;95.20
23305;DHT22;11821;51.456;8.844;2022-07-01T12:45:59;23.90;95.20
23305;DHT22;11821;51.456;8.844;2022-07-01T12:48:26;24.10;94.70
23305;DHT22;11821;51.456;8.844;2022-07-01T12:50:56;24.10;95.10
23305;DHT22;11821;51.456;8.844;2022-07-01T12:53:23;24.10;94.90
23305;DHT22;11821;51.456;8.844;2022-07-01T12:55:53;24.30;94.30
23305;DHT22;11821;51.456;8.844;2022-07-01T12:58:25;24.90;94.00
23305;DHT22;11821;51.456;8.844;2022-07-01T13:00:54;25.30;93.20
23305;DHT22;11821;51.456;8.844;2022-07-01T13:03:25;25.40;92.00
23305;DHT22;11821;51.456;8.844;2022-07-01T13:05:52;25.50;92.60
23305;DHT22;11821;51.456;8.844;2022-07-01T13:08:19;25.30;92.00
23305;DHT22;11821;51.456;8.844;2022-07-01T13:10:47;25.10;92.00
23305;DHT22;11821;51.456;8.844;2022-07-01T13:13:14;25.20;91.50
23305;DHT22;11821;51.456;8.844;2022-07-01T13:15:43;25.10;92.10
23305;DHT22;11821;51.456;8.844;2022-07-01T13:18:10;25.20;92.00
23305;DHT22;11821;51.456;8.844;2022-07-01T13:20:41;25.20;91.50
23305;DHT22;11821;51.456;8.844;2022-07-01T13:23:07;25.30;91.80
23305;DHT22;11821;51.456;8.844;2022-07-01T13:25:34;25.30;91.70
23305;DHT22;11821;51.456;8.844;2022-07-01T13:28:00;25.40;91.80
23305;DHT22;11821;51.456;8.844;2022-07-01T13:30:26;25.60;92.20
23305;DHT22;11821;51.456;8.844;2022-07-01T13:32:53;25.80;91.50
23305;DHT22;11821;51.456;8.844;2022-07-01T13:35:21;25.70;91.00
23305;DHT22;11821;51.456;8.844;2022-07-01T13:37:48;25.80;91.10
23305;DHT22;11821;51.456;8.844;2022-07-01T13:40:14;25.70;91.50
23305;DHT22;11821;51.456;8.844;2022-07-01T13:42:40;25.80;90.90
23305;DHT22;11821;51.456;8.844;2022-07-01T13:45:07;25.90;90.60
23305;DHT22;11821;51.456;8.844;2022-07-01T13:47:34;26.00;90.40
23305;DHT22;11821;51.456;8.844;2022-07-01T13:50:00;25.50;91.10
23305;DHT22;11821;51.456;8.844;2022-07-01T13:52:27;25.30;90.60
23305;DHT22;11821;51.456;8.844;2022-07-01T13:54:57;25.10;91.30
23305;DHT22;11821;51.456;8.844;2022-07-01T13:57:25;24.90;91.40
23305;DHT22;11821;51.456;8.844;2022-07-01T13:59:51;24.90;92.40
23305;DHT22;11821;51.456;8.844;2022-07-01T14:02:19;24.80;92.40
23305;DHT22;11821;51.456;8.844;2022-07-01T14:04:48;24.70;92.50
23305;DHT22;11821;51.456;8.844;2022-07-01T14:07:15;24.60;92.20
23305;DHT22;11821;51.456;8.844;2022-07-01T14:09:41;24.30;92.60
23305;DHT22;11821;51.456;8.844;2022-07-01T14:12:10;24.00;93.50
23305;DHT22;11821;51.456;8.844;2022-07-01T14:14:36;23.80;93.90
23305;DHT22;11821;51.456;8.844;2022-07-01T14:17:03;23.60;94.30
23305;DHT22;11821;51.456;8.844;2022-07-01T14:19:29;23.50;94.20
23305;DHT22;11821;51.456;8.844;2022-07-01T14:21:56;23.50;94.50
23305;DHT22;11821;51.456;8.844;2022-07-01T14:24:22;23.50;94.60
23305;DHT22;11821;51.456;8.844;2022-07-01T14:26:48;23.30;94.80
23305;DHT22;11821;51.456;8.844;2022-07-01T14:29:15;23.20;95.10
23305;DHT22;11821;51.456;8.844;2022-07-01T14:31:41;23.30;95.00
23305;DHT22;11821;51.456;8.844;2022-07-01T14:34:07;23.20;95.20
23305;DHT22;11821;51.456;8.844;2022-07-01T14:36:33;23.10;95.30
23305;DHT22;11821;51.456;8.844;2022-07-01T14:39:00;23.30;95.40
23305;DHT22;11821;51.456;8.844;2022-07-01T14:41:26;23.40;95.20
23305;DHT22;11821;51.456;8.844;2022-07-01T14:43:52;23.70;95.30
23305;DHT22;11821;51.456;8.844;2022-07-01T14:46:19;24.30;94.40
23305;DHT22;11821;51.456;8.844;2022-07-01T14:48:45;24.70;93.30
23305;DHT22;11821;51.456;8.844;2022-07-01T14:51:11;24.80;93.20
23305;DHT22;11821;51.456;8.844;2022-07-01T14:53:37;24.70;93.50
23305;DHT22;11821;51.456;8.844;2022-07-01T14:56:04;24.70;93.80
23305;DHT22;11821;51.456;8.844;2022-07-01T14:58:30;24.80;93.00
23305;DHT22;11821;51.456;8.844;2022-07-01T15:00:57;24.50;93.30
23305;DHT22;11821;51.456;8.844;2022-07-01T15:03:23;24.30;93.00
23305;DHT22;11821;51.456;8.844;2022-07-01T15:05:49;24.30;93.10
23305;DHT22;11821;51.456;8.844;2022-07-01T15:08:15;24.30;93.10
23305;DHT22;11821;51.456;8.844;2022-07-01T15:10:48;24.20;92.90
23305;DHT22;11821;51.456;8.844;2022-07-01T15:13:15;24.20;93.10
23305;DHT22;11821;51.456;8.844;2022-07-01T15:15:41;24.20;93.20
23305;DHT22;11821;51.456;8.844;2022-07-01T15:18:07;24.20;93.50
23305;DHT22;11821;51.456;8.844;2022-07-01T15:20:34;24.30;93.70
23305;DHT22;11821;51.456;8.844;2022-07-01T15:23:00;24.20;92.60
23305;DHT22;11821;51.456;8.844;2022-07-01T15:25:26;24.40;93.10
23305;DHT22;11821;51.456;8.844;2022-07-01T15:27:52;24.60;92.60
23305;DHT22;11821;51.456;8.844;2022-07-01T15:30:19;24.90;92.40
23305;DHT22;11821;51.456;8.844;2022-07-01T15:32:45;25.20;91.40
23305;DHT22;11821;51.456;8.844;2022-07-01T15:35:11;25.40;91.00
23305;DHT22;11821;51.456;8.844;2022-07-01T15:37:39;25.60;91.40
23305;DHT22;11821;51.456;8.844;2022-07-01T15:40:07;25.90;90.90
23305;DHT22;11821;51.456;8.844;2022-07-01T15:42:33;26.10;90.40
23305;DHT22;11821;51.456;8.844;2022-07-01T15:45:01;26.00;89.80